KCMI/CMI METAR and TAF weather

Enter ICAO airport designator
Station Type Date Time Source
KCMI METAR 2019/02/23 02:53 UTC NOAA

KCMI 230253Z 08011KT 6SM BR FEW065 OVC080 02/00 A3023 RMK AO2 SLP246 T00220000 56013


Station Type Date Time Source
KCMI Decoded METAR 2019/02/23 02:53 UTC NOAA

UNIV OF ILLINOIS-WILLARD, IL, United States (KCMI) 40-02N 088-16W 228M
Feb 22, 2019 - 09:53 PM EST / 2019.02.23 0253 UTC
Wind: from the E (080 degrees) at 13 MPH (11 KT):0
Visibility: 6 mile(s):0
Sky conditions: overcast
Weather: mist
Temperature: 36.0 F (2.2 C)
Dew Point: 32.0 F (0.0 C)
Relative Humidity: 85%
Pressure (altimeter): 30.23 in. Hg (1023 hPa)
Pressure tendency: 0.04 inches (1.3 hPa) lower than three hours ago
ob: KCMI 230253Z 08011KT 6SM BR FEW065 OVC080 02/00 A3023 RMK AO2 SLP246 T00220000 56013
cycle: 3

Station Type Date Time Source
KCMI TAF 2019/02/22 18:39 UTC NOAA

TAF KCMI 221736Z 2218/2318 09012KT P6SM SCT250
FM222300 10007KT P6SM BKN080
FM231000 10009KT P6SM OVC025
FM231400 12010KT P6SM OVC008
FM231500 12012KT 3SM SHRA OVC005


Example: see airport list